sensor_id;sensor_type;location;lat;lon;timestamp;pressure;altitude;pressure_sealevel;temperature;humidity
64080;BME280;51042;49.696;10.808;2023-11-19T00:00:39;99701.81;;;4.69;100.00
64080;BME280;51042;49.696;10.808;2023-11-19T00:03:04;99689.81;;;4.70;100.00
64080;BME280;51042;49.696;10.808;2023-11-19T00:05:30;99685.16;;;4.70;100.00
64080;BME280;51042;49.696;10.808;2023-11-19T00:07:56;99688.63;;;4.71;100.00
64080;BME280;51042;49.696;10.808;2023-11-19T00:10:21;99693.31;;;4.70;100.00
64080;BME280;51042;49.696;10.808;2023-11-19T00:12:47;99696.78;;;4.71;100.00
64080;BME280;51042;49.696;10.808;2023-11-19T00:15:13;99696.78;;;4.71;100.00
64080;BME280;51042;49.696;10.808;2023-11-19T00:17:38;99696.38;;;4.69;100.00
64080;BME280;51042;49.696;10.808;2023-11-19T00:20:13;99683.19;;;4.71;100.00
64080;BME280;51042;49.696;10.808;2023-11-19T00:22:38;99675.47;;;4.73;100.00
64080;BME280;51042;49.696;10.808;2023-11-19T00:25:04;99692.94;;;4.72;100.00
64080;BME280;51042;49.696;10.808;2023-11-19T00:27:30;99689.41;;;4.71;100.00
64080;BME280;51042;49.696;10.808;2023-11-19T00:29:56;99693.72;;;4.72;100.00
64080;BME280;51042;49.696;10.808;2023-11-19T00:32:21;99696.88;;;4.74;100.00
64080;BME280;51042;49.696;10.808;2023-11-19T00:34:46;99701.16;;;4.75;100.00
64080;BME280;51042;49.696;10.808;2023-11-19T00:37:13;99691.06;;;4.76;100.00
64080;BME280;51042;49.696;10.808;2023-11-19T00:39:38;99678.97;;;4.73;100.00
64080;BME280;51042;49.696;10.808;2023-11-19T00:42:03;99686.00;;;4.74;100.00
64080;BME280;51042;49.696;10.808;2023-11-19T00:44:28;99678.63;;;4.75;100.00
64080;BME280;51042;49.696;10.808;2023-11-19T00:46:54;99684.06;;;4.75;100.00
64080;BME280;51042;49.696;10.808;2023-11-19T00:49:19;99687.56;;;4.75;100.00
64080;BME280;51042;49.696;10.808;2023-11-19T00:51:44;99675.13;;;4.74;100.00
64080;BME280;51042;49.696;10.808;2023-11-19T00:54:10;99684.06;;;4.75;100.00
64080;BME280;51042;49.696;10.808;2023-11-19T00:56:35;99686.81;;;4.78;100.00
64080;BME280;51042;49.696;10.808;2023-11-19T00:59:02;99704.72;;;4.79;100.00
64080;BME280;51042;49.696;10.808;2023-11-19T01:01:27;99688.41;;;4.79;100.00
64080;BME280;51042;49.696;10.808;2023-11-19T01:03:52;99700.50;;;4.82;100.00
64080;BME280;51042;49.696;10.808;2023-11-19T01:06:27;99700.50;;;4.82;100.00
64080;BME280;51042;49.696;10.808;2023-11-19T01:08:53;99703.22;;;4.82;100.00
64080;BME280;51042;49.696;10.808;2023-11-19T01:11:21;99710.19;;;4.83;100.00
64080;BME280;51042;49.696;10.808;2023-11-19T01:13:47;99724.22;;;4.85;100.00
64080;BME280;51042;49.696;10.808;2023-11-19T01:16:12;99712.19;;;4.86;100.00
64080;BME280;51042;49.696;10.808;2023-11-19T01:18:38;99703.69;;;4.87;100.00
64080;BME280;51042;49.696;10.808;2023-11-19T01:21:03;99708.34;;;4.87;100.00
64080;BME280;51042;49.696;10.808;2023-11-19T01:23:29;99709.47;;;4.86;100.00
64080;BME280;51042;49.696;10.808;2023-11-19T01:25:54;99712.19;;;4.86;100.00
64080;BME280;51042;49.696;10.808;2023-11-19T01:28:19;99718.06;;;4.88;100.00
64080;BME280;51042;49.696;10.808;2023-11-19T01:30:45;99709.53;;;4.89;100.00
64080;BME280;51042;49.696;10.808;2023-11-19T01:33:10;99709.97;;;4.91;100.00
64080;BME280;51042;49.696;10.808;2023-11-19T01:35:35;99705.31;;;4.92;100.00
64080;BME280;51042;49.696;10.808;2023-11-19T01:38:00;99697.94;;;4.92;100.00
64080;BME280;51042;49.696;10.808;2023-11-19T01:40:25;99700.69;;;4.96;100.00
64080;BME280;51042;49.696;10.808;2023-11-19T01:42:51;99693.69;;;4.95;100.00
64080;BME280;51042;49.696;10.808;2023-11-19T01:45:27;99684.38;;;4.96;100.00
64080;BME280;51042;49.696;10.808;2023-11-19T01:47:54;99687.88;;;4.97;100.00
64080;BME280;51042;49.696;10.808;2023-11-19T01:50:19;99686.69;;;4.94;100.00
64080;BME280;51042;49.696;10.808;2023-11-19T01:52:45;99697.19;;;4.96;100.00
64080;BME280;51042;49.696;10.808;2023-11-19T01:55:11;99703.84;;;4.98;100.00
64080;BME280;51042;49.696;10.808;2023-11-19T01:57:41;99697.66;;;5.01;100.00
64080;BME280;51042;49.696;10.808;2023-11-19T02:00:07;99698.03;;;5.00;100.00
64080;BME280;51042;49.696;10.808;2023-11-19T02:02:36;99688.72;;;5.01;100.00
64080;BME280;51042;49.696;10.808;2023-11-19T02:05:01;99699.22;;;5.02;100.00
64080;BME280;51042;49.696;10.808;2023-11-19T02:07:27;99705.09;;;5.04;100.00
64080;BME280;51042;49.696;10.808;2023-11-19T02:09:52;99707.03;;;5.04;100.00
64080;BME280;51042;49.696;10.808;2023-11-19T02:12:18;99717.91;;;5.04;100.00
64080;BME280;51042;49.696;10.808;2023-11-19T02:14:45;99717.56;;;5.05;100.00
64080;BME280;51042;49.696;10.808;2023-11-19T02:17:29;99717.16;;;5.07;100.00
64080;BME280;51042;49.696;10.808;2023-11-19T02:19:56;99721.84;;;5.06;100.00
64080;BME280;51042;49.696;10.808;2023-11-19T02:22:21;99719.91;;;5.07;100.00
64080;BME280;51042;49.696;10.808;2023-11-19T02:24:47;99721.91;;;5.10;100.00
64080;BME280;51042;49.696;10.808;2023-11-19T02:27:16;99723.41;;;5.07;100.00
64080;BME280;51042;49.696;10.808;2023-11-19T02:29:44;99725.75;;;5.09;100.00
64080;BME280;51042;49.696;10.808;2023-11-19T02:32:09;99730.41;;;5.08;100.00
64080;BME280;51042;49.696;10.808;2023-11-19T02:34:34;99728.13;;;5.10;100.00
64080;BME280;51042;49.696;10.808;2023-11-19T02:37:00;99734.34;;;5.11;100.00
64080;BME280;51042;49.696;10.808;2023-11-19T02:39:25;99744.44;;;5.10;100.00
64080;BME280;51042;49.696;10.808;2023-11-19T02:41:51;99741.78;;;5.14;100.00
64080;BME280;51042;49.696;10.808;2023-11-19T02:44:18;99738.25;;;5.13;100.00
64080;BME280;51042;49.696;10.808;2023-11-19T02:46:43;99733.59;;;5.14;100.00
64080;BME280;51042;49.696;10.808;2023-11-19T02:49:08;99740.94;;;5.10;100.00
64080;BME280;51042;49.696;10.808;2023-11-19T02:51:33;99739.06;;;5.14;100.00
64080;BME280;51042;49.696;10.808;2023-11-19T02:53:59;99731.31;;;5.16;100.00
64080;BME280;51042;49.696;10.808;2023-11-19T02:56:25;99724.78;;;5.20;100.00
64080;BME280;51042;49.696;10.808;2023-11-19T02:58:51;99717.41;;;5.21;100.00
64080;BME280;51042;49.696;10.808;2023-11-19T03:01:26;99699.50;;;5.20;100.00
64080;BME280;51042;49.696;10.808;2023-11-19T03:03:55;99703.38;;;5.19;100.00
64080;BME280;51042;49.696;10.808;2023-11-19T03:06:22;99716.97;;;5.19;100.00
64080;BME280;51042;49.696;10.808;2023-11-19T03:08:48;99705.69;;;5.17;100.00
64080;BME280;51042;49.696;10.808;2023-11-19T03:11:13;99684.31;;;5.19;100.00
64080;BME280;51042;49.696;10.808;2023-11-19T03:13:39;99671.88;;;5.18;100.00
64080;BME280;51042;49.696;10.808;2023-11-19T03:16:05;99643.09;;;5.17;100.00
64080;BME280;51042;49.696;10.808;2023-11-19T03:18:30;99634.50;;;5.15;100.00
64080;BME280;51042;49.696;10.808;2023-11-19T03:20:55;99622.84;;;5.14;100.00
64080;BME280;51042;49.696;10.808;2023-11-19T03:23:20;99647.34;;;5.14;100.00
64080;BME280;51042;49.696;10.808;2023-11-19T03:25:46;99671.47;;;5.16;100.00
64080;BME280;51042;49.696;10.808;2023-11-19T03:28:11;99664.50;;;5.18;100.00
64080;BME280;51042;49.696;10.808;2023-11-19T03:30:36;99677.00;;;5.23;100.00
64080;BME280;51042;49.696;10.808;2023-11-19T03:33:02;99686.75;;;5.24;100.00
64080;BME280;51042;49.696;10.808;2023-11-19T03:35:27;99689.06;;;5.25;100.00
64080;BME280;51042;49.696;10.808;2023-11-19T03:37:53;99699.59;;;5.27;100.00
64080;BME280;51042;49.696;10.808;2023-11-19T03:40:18;99700.38;;;5.27;100.00
64080;BME280;51042;49.696;10.808;2023-11-19T03:42:44;99704.69;;;5.28;100.00
64080;BME280;51042;49.696;10.808;2023-11-19T03:45:09;99713.69;;;5.32;100.00
64080;BME280;51042;49.696;10.808;2023-11-19T03:47:35;99718.34;;;5.32;100.00
64080;BME280;51042;49.696;10.808;2023-11-19T03:50:00;99709.38;;;5.31;100.00
64080;BME280;51042;49.696;10.808;2023-11-19T03:52:25;99714.47;;;5.33;100.00
64080;BME280;51042;49.696;10.808;2023-11-19T03:54:52;99710.59;;;5.34;100.00
64080;BME280;51042;49.696;10.808;2023-11-19T03:57:18;99723.44;;;5.37;100.00
64080;BME280;51042;49.696;10.808;2023-11-19T03:59:43;99728.97;;;5.41;100.00
64080;BME280;51042;49.696;10.808;2023-11-19T04:02:09;99739.50;;;5.42;100.00
64080;BME280;51042;49.696;10.808;2023-11-19T04:04:35;99744.53;;;5.44;100.00
64080;BME280;51042;49.696;10.808;2023-11-19T04:07:00;99766.75;;;5.46;100.00
64080;BME280;51042;49.696;10.808;2023-11-19T04:09:27;99775.75;;;5.50;100.00
64080;BME280;51042;49.696;10.808;2023-11-19T04:11:53;99788.22;;;5.51;100.00
64080;BME280;51042;49.696;10.808;2023-11-19T04:14:18;99791.38;;;5.53;100.00
64080;BME280;51042;49.696;10.808;2023-11-19T04:16:44;99800.72;;;5.55;100.00
64080;BME280;51042;49.696;10.808;2023-11-19T04:19:09;99803.09;;;5.57;100.00
64080;BME280;51042;49.696;10.808;2023-11-19T04:21:35;99816.75;;;5.60;100.00
64080;BME280;51042;49.696;10.808;2023-11-19T04:24:00;99822.19;;;5.60;100.00
64080;BME280;51042;49.696;10.808;2023-11-19T04:26:25;99832.72;;;5.62;100.00
64080;BME280;51042;49.696;10.808;2023-11-19T04:28:51;99826.13;;;5.63;100.00
64080;BME280;51042;49.696;10.808;2023-11-19T04:31:16;99834.28;;;5.63;100.00
64080;BME280;51042;49.696;10.808;2023-11-19T04:33:41;99836.66;;;5.64;100.00
64080;BME280;51042;49.696;10.808;2023-11-19T04:36:07;99823.84;;;5.65;100.00
64080;BME280;51042;49.696;10.808;2023-11-19T04:38:32;99825.03;;;5.67;100.00
64080;BME280;51042;49.696;10.808;2023-11-19T04:40:58;99803.66;;;5.69;100.00
64080;BME280;51042;49.696;10.808;2023-11-19T04:43:23;99789.28;;;5.72;100.00
64080;BME280;51042;49.696;10.808;2023-11-19T04:45:48;99782.34;;;5.75;100.00
64080;BME280;51042;49.696;10.808;2023-11-19T04:48:13;99774.94;;;5.75;100.00
64080;BME280;51042;49.696;10.808;2023-11-19T04:50:39;99747.38;;;5.81;100.00
64080;BME280;51042;49.696;10.808;2023-11-19T04:53:04;99740.44;;;5.83;100.00
64080;BME280;51042;49.696;10.808;2023-11-19T04:55:29;99720.56;;;5.83;100.00
64080;BME280;51042;49.696;10.808;2023-11-19T04:57:54;99700.75;;;5.86;100.00
64080;BME280;51042;49.696;10.808;2023-11-19T05:00:19;99673.19;;;5.87;100.00
64080;BME280;51042;49.696;10.808;2023-11-19T05:02:46;99659.19;;;5.89;100.00
64080;BME280;51042;49.696;10.808;2023-11-19T05:05:11;99654.91;;;5.91;100.00
64080;BME280;51042;49.696;10.808;2023-11-19T05:07:37;99645.22;;;5.94;100.00
64080;BME280;51042;49.696;10.808;2023-11-19T05:10:03;99642.53;;;5.97;100.00
64080;BME280;51042;49.696;10.808;2023-11-19T05:12:28;99637.50;;;5.99;100.00
64080;BME280;51042;49.696;10.808;2023-11-19T05:14:53;99631.28;;;6.02;100.00
64080;BME280;51042;49.696;10.808;2023-11-19T05:17:19;99625.91;;;6.06;100.00
64080;BME280;51042;49.696;10.808;2023-11-19T05:19:45;99623.56;;;6.08;100.00
64080;BME280;51042;49.696;10.808;2023-11-19T05:22:10;99612.72;;;6.11;100.00
64080;BME280;51042;49.696;10.808;2023-11-19T05:24:35;99615.47;;;6.15;100.00
64080;BME280;51042;49.696;10.808;2023-11-19T05:27:01;99612.78;;;6.19;100.00
64080;BME280;51042;49.696;10.808;2023-11-19T05:29:27;99603.06;;;6.21;100.00
64080;BME280;51042;49.696;10.808;2023-11-19T05:31:52;99603.47;;;6.23;100.00
64080;BME280;51042;49.696;10.808;2023-11-19T05:34:17;99617.91;;;6.27;100.00
64080;BME280;51042;49.696;10.808;2023-11-19T05:36:42;99616.03;;;6.31;100.00
64080;BME280;51042;49.696;10.808;2023-11-19T05:39:08;99615.63;;;6.33;100.00
64080;BME280;51042;49.696;10.808;2023-11-19T05:41:33;99615.63;;;6.33;100.00
64080;BME280;51042;49.696;10.808;2023-11-19T05:43:59;99603.19;;;6.35;100.00
64080;BME280;51042;49.696;10.808;2023-11-19T05:46:24;99607.50;;;6.36;100.00
64080;BME280;51042;49.696;10.808;2023-11-19T05:48:52;99603.22;;;6.39;100.00
64080;BME280;51042;49.696;10.808;2023-11-19T05:51:17;99588.41;;;6.40;100.00
64080;BME280;51042;49.696;10.808;2023-11-19T05:53:42;99588.00;;;6.38;100.00
64080;BME280;51042;49.696;10.808;2023-11-19T05:56:08;99586.47;;;6.37;100.00
64080;BME280;51042;49.696;10.808;2023-11-19T05:58:34;99593.09;;;6.39;100.00
64080;BME280;51042;49.696;10.808;2023-11-19T06:01:00;99591.94;;;6.44;100.00
64080;BME280;51042;49.696;10.808;2023-11-19T06:03:26;99593.56;;;6.48;100.00
64080;BME280;51042;49.696;10.808;2023-11-19T06:05:52;99583.03;;;6.50;100.00
64080;BME280;51042;49.696;10.808;2023-11-19T06:08:17;99584.25;;;6.53;100.00
64080;BME280;51042;49.696;10.808;2023-11-19T06:10:42;99582.69;;;6.55;100.00
64080;BME280;51042;49.696;10.808;2023-11-19T06:13:08;99581.56;;;6.60;100.00
64080;BME280;51042;49.696;10.808;2023-11-19T06:15:35;99578.50;;;6.69;100.00
64080;BME280;51042;49.696;10.808;2023-11-19T06:18:01;99582.84;;;6.77;100.00
64080;BME280;51042;49.696;10.808;2023-11-19T06:20:28;99570.41;;;6.86;100.00
64080;BME280;51042;49.696;10.808;2023-11-19T06:22:54;99568.91;;;6.92;100.00
64080;BME280;51042;49.696;10.808;2023-11-19T06:25:19;99565.44;;;6.99;100.00
64080;BME280;51042;49.696;10.808;2023-11-19T06:27:44;99560.00;;;7.03;100.00
64080;BME280;51042;49.696;10.808;2023-11-19T06:30:09;99554.97;;;7.08;100.00
64080;BME280;51042;49.696;10.808;2023-11-19T06:32:35;99564.31;;;7.11;100.00
64080;BME280;51042;49.696;10.808;2023-11-19T06:35:00;99577.22;;;7.17;100.00
64080;BME280;51042;49.696;10.808;2023-11-19T06:37:25;99570.56;;;7.11;100.00
64080;BME280;51042;49.696;10.808;2023-11-19T06:39:52;99572.03;;;6.94;100.00
64080;BME280;51042;49.696;10.808;2023-11-19T06:42:17;99573.16;;;6.86;100.00
64080;BME280;51042;49.696;10.808;2023-11-19T06:44:42;99569.63;;;6.86;100.00
64080;BME280;51042;49.696;10.808;2023-11-19T06:47:08;99570.84;;;6.92;100.00
64080;BME280;51042;49.696;10.808;2023-11-19T06:49:33;99577.16;;;7.07;100.00
64080;BME280;51042;49.696;10.808;2023-11-19T06:51:58;99583.94;;;7.41;100.00
64080;BME280;51042;49.696;10.808;2023-11-19T06:54:23;99592.22;;;7.62;100.00
64080;BME280;51042;49.696;10.808;2023-11-19T06:56:49;99601.22;;;7.80;100.00
64080;BME280;51042;49.696;10.808;2023-11-19T06:59:14;99599.31;;;7.95;100.00
64080;BME280;51042;49.696;10.808;2023-11-19T07:01:39;99605.19;;;8.08;100.00
64080;BME280;51042;49.696;10.808;2023-11-19T07:04:07;99602.88;;;8.13;100.00
64080;BME280;51042;49.696;10.808;2023-11-19T07:06:34;99607.97;;;8.22;100.00
64080;BME280;51042;49.696;10.808;2023-11-19T07:09:00;99617.34;;;8.35;100.00
64080;BME280;51042;49.696;10.808;2023-11-19T07:11:34;99623.22;;;8.37;100.00
64080;BME280;51042;49.696;10.808;2023-11-19T07:14:00;99626.75;;;8.38;100.00
64080;BME280;51042;49.696;10.808;2023-11-19T07:16:26;99634.97;;;8.45;100.00
64080;BME280;51042;49.696;10.808;2023-11-19T07:18:52;99650.19;;;8.49;100.00
64080;BME280;51042;49.696;10.808;2023-11-19T07:21:17;99651.38;;;8.59;100.00
64080;BME280;51042;49.696;10.808;2023-11-19T07:23:42;99665.84;;;8.67;100.00
64080;BME280;51042;49.696;10.808;2023-11-19T07:26:07;99670.53;;;8.70;100.00
64080;BME280;51042;49.696;10.808;2023-11-19T07:28:36;99679.94;;;8.76;100.00
64080;BME280;51042;49.696;10.808;2023-11-19T07:31:01;99687.31;;;8.82;100.00
64080;BME280;51042;49.696;10.808;2023-11-19T07:33:27;99683.03;;;8.85;100.00
64080;BME280;51042;49.696;10.808;2023-11-19T07:35:52;99695.16;;;8.91;100.00
64080;BME280;51042;49.696;10.808;2023-11-19T07:38:17;99692.41;;;8.91;100.00
64080;BME280;51042;49.696;10.808;2023-11-19T07:40:43;99698.28;;;8.93;100.00
64080;BME280;51042;49.696;10.808;2023-11-19T07:43:08;99696.72;;;8.99;100.00
64080;BME280;51042;49.696;10.808;2023-11-19T07:45:33;99698.28;;;9.04;100.00
64080;BME280;51042;49.696;10.808;2023-11-19T07:47:59;99713.50;;;9.12;100.00
64080;BME280;51042;49.696;10.808;2023-11-19T07:50:26;99710.00;;;9.15;100.00
64080;BME280;51042;49.696;10.808;2023-11-19T07:52:52;99710.78;;;9.19;100.00
64080;BME280;51042;49.696;10.808;2023-11-19T07:55:17;99711.56;;;9.23;100.00
64080;BME280;51042;49.696;10.808;2023-11-19T07:57:42;99722.88;;;9.25;100.00
64080;BME280;51042;49.696;10.808;2023-11-19T08:00:07;99727.59;;;9.28;100.00
64080;BME280;51042;49.696;10.808;2023-11-19T08:02:37;99724.84;;;9.28;100.00
64080;BME280;51042;49.696;10.808;2023-11-19T08:05:02;99734.66;;;9.29;100.00
64080;BME280;51042;49.696;10.808;2023-11-19T08:07:28;99737.38;;;9.29;100.00
64080;BME280;51042;49.696;10.808;2023-11-19T08:09:53;99730.31;;;9.31;100.00
64080;BME280;51042;49.696;10.808;2023-11-19T08:12:18;99729.94;;;9.29;100.00
64080;BME280;51042;49.696;10.808;2023-11-19T08:14:43;99726.44;;;9.29;100.00
64080;BME280;51042;49.696;10.808;2023-11-19T08:17:09;99725.22;;;9.30;100.00
64080;BME280;51042;49.696;10.808;2023-11-19T08:19:34;99729.16;;;9.32;100.00
64080;BME280;51042;49.696;10.808;2023-11-19T08:21:59;99726.41;;;9.36;100.00
64080;BME280;51042;49.696;10.808;2023-11-19T08:24:25;99736.97;;;9.37;100.00
64080;BME280;51042;49.696;10.808;2023-11-19T08:26:50;99726.38;;;9.43;100.00
64080;BME280;51042;49.696;10.808;2023-11-19T08:29:15;99739.31;;;9.46;100.00
64080;BME280;51042;49.696;10.808;2023-11-19T08:31:40;99744.38;;;9.51;100.00
64080;BME280;51042;49.696;10.808;2023-11-19T08:34:05;99743.97;;;9.56;100.00
64080;BME280;51042;49.696;10.808;2023-11-19T08:36:33;99755.69;;;9.60;100.00
64080;BME280;51042;49.696;10.808;2023-11-19T08:38:59;99743.19;;;9.63;100.00
64080;BME280;51042;49.696;10.808;2023-11-19T08:41:24;99739.28;;;9.64;100.00
64080;BME280;51042;49.696;10.808;2023-11-19T08:43:50;99739.28;;;9.64;100.00
64080;BME280;51042;49.696;10.808;2023-11-19T08:46:16;99745.53;;;9.64;100.00
64080;BME280;51042;49.696;10.808;2023-11-19T08:48:41;99744.34;;;9.69;100.00
64080;BME280;51042;49.696;10.808;2023-11-19T08:51:07;99742.72;;;9.78;100.00
64080;BME280;51042;49.696;10.808;2023-11-19T08:53:32;99753.69;;;9.86;100.00
64080;BME280;51042;49.696;10.808;2023-11-19T08:55:57;99750.91;;;9.89;100.00
64080;BME280;51042;49.696;10.808;2023-11-19T08:58:23;99762.66;;;10.00;100.00
64080;BME280;51042;49.696;10.808;2023-11-19T09:00:48;99756.75;;;10.02;100.00
64080;BME280;51042;49.696;10.808;2023-11-19T09:03:13;99759.50;;;10.05;100.00
64080;BME280;51042;49.696;10.808;2023-11-19T09:05:38;99759.09;;;10.07;100.00
64080;BME280;51042;49.696;10.808;2023-11-19T09:08:04;99750.47;;;10.08;100.00
64080;BME280;51042;49.696;10.808;2023-11-19T09:10:29;99742.63;;;10.17;100.00
64080;BME280;51042;49.696;10.808;2023-11-19T09:12:54;99733.56;;;10.28;100.00
64080;BME280;51042;49.696;10.808;2023-11-19T09:15:20;99735.41;;;10.45;100.00
64080;BME280;51042;49.696;10.808;2023-11-19T09:17:45;99727.88;;;10.59;100.00
64080;BME280;51042;49.696;10.808;2023-11-19T09:20:10;99719.91;;;10.76;100.00
64080;BME280;51042;49.696;10.808;2023-11-19T09:22:39;99722.28;;;10.77;100.00
64080;BME280;51042;49.696;10.808;2023-11-19T09:25:05;99720.56;;;10.90;100.00
64080;BME280;51042;49.696;10.808;2023-11-19T09:27:30;99713.25;;;11.21;100.00
64080;BME280;51042;49.696;10.808;2023-11-19T09:29:55;99705.69;;;11.32;100.00
64080;BME280;51042;49.696;10.808;2023-11-19T09:32:23;99707.19;;;11.40;100.00
64080;BME280;51042;49.696;10.808;2023-11-19T09:34:48;99693.75;;;11.46;100.00
64080;BME280;51042;49.696;10.808;2023-11-19T09:37:13;99688.72;;;11.41;100.00
64080;BME280;51042;49.696;10.808;2023-11-19T09:39:39;99676.72;;;11.24;100.00
64080;BME280;51042;49.696;10.808;2023-11-19T09:42:04;99680.94;;;11.32;100.00
64080;BME280;51042;49.696;10.808;2023-11-19T09:44:30;99670.66;;;11.40;100.00
64080;BME280;51042;49.696;10.808;2023-11-19T09:46:56;99667.75;;;11.54;100.00
64080;BME280;51042;49.696;10.808;2023-11-19T09:49:23;99656.94;;;11.74;100.00
64080;BME280;51042;49.696;10.808;2023-11-19T09:51:50;99650.16;;;11.82;100.00
64080;BME280;51042;49.696;10.808;2023-11-19T09:54:15;99625.38;;;11.85;100.00
64080;BME280;51042;49.696;10.808;2023-11-19T09:56:40;99607.09;;;11.99;100.00
64080;BME280;51042;49.696;10.808;2023-11-19T09:59:06;99596.00;;;12.06;100.00
64080;BME280;51042;49.696;10.808;2023-11-19T10:01:31;99583.19;;;11.96;100.00
64080;BME280;51042;49.696;10.808;2023-11-19T10:03:57;99568.81;;;11.84;100.00
64080;BME280;51042;49.696;10.808;2023-11-19T10:06:24;99558.47;;;11.92;100.00
64080;BME280;51042;49.696;10.808;2023-11-19T10:08:51;99540.38;;;12.18;100.00
64080;BME280;51042;49.696;10.808;2023-11-19T10:11:16;99539.88;;;12.50;100.00
64080;BME280;51042;49.696;10.808;2023-11-19T10:13:42;99526.59;;;12.45;100.00
64080;BME280;51042;49.696;10.808;2023-11-19T10:16:13;99520.03;;;12.58;100.00
64080;BME280;51042;49.696;10.808;2023-11-19T10:18:45;99506.53;;;12.64;100.00
64080;BME280;51042;49.696;10.808;2023-11-19T10:21:11;99498.06;;;12.55;100.00
64080;BME280;51042;49.696;10.808;2023-11-19T10:23:48;99488.25;;;12.54;100.00
64080;BME280;51042;49.696;10.808;2023-11-19T10:26:15;99484.34;;;12.51;100.00
64080;BME280;51042;49.696;10.808;2023-11-19T10:28:40;99478.88;;;12.71;100.00
64080;BME280;51042;49.696;10.808;2023-11-19T10:31:10;99481.09;;;12.80;100.00
64080;BME280;51042;49.696;10.808;2023-11-19T10:33:36;99484.81;;;12.69;100.00
64080;BME280;51042;49.696;10.808;2023-11-19T10:36:01;99492.28;;;12.49;100.00
64080;BME280;51042;49.696;10.808;2023-11-19T10:38:26;99502.22;;;12.43;100.00
64080;BME280;51042;49.696;10.808;2023-11-19T10:40:52;99491.88;;;12.51;100.00
64080;BME280;51042;49.696;10.808;2023-11-19T10:43:17;99526.81;;;12.54;100.00
64080;BME280;51042;49.696;10.808;2023-11-19T10:45:43;99573.53;;;12.57;100.00
64080;BME280;51042;49.696;10.808;2023-11-19T10:48:08;99639.19;;;12.62;100.00
64080;BME280;51042;49.696;10.808;2023-11-19T10:50:35;99713.84;;;12.68;100.00
64080;BME280;51042;49.696;10.808;2023-11-19T10:53:01;99743.50;;;12.57;100.00
64080;BME280;51042;49.696;10.808;2023-11-19T10:55:30;99754.31;;;12.44;100.00
64080;BME280;51042;49.696;10.808;2023-11-19T10:58:02;99754.66;;;12.46;100.00
64080;BME280;51042;49.696;10.808;2023-11-19T11:00:38;99745.13;;;12.54;100.00
64080;BME280;51042;49.696;10.808;2023-11-19T11:03:25;99731.75;;;12.80;100.00
64080;BME280;51042;49.696;10.808;2023-11-19T11:05:50;99719.06;;;12.86;100.00
64080;BME280;51042;49.696;10.808;2023-11-19T11:08:16;99702.16;;;13.07;100.00
64080;BME280;51042;49.696;10.808;2023-11-19T11:10:46;99682.22;;;13.23;100.00
64080;BME280;51042;49.696;10.808;2023-11-19T11:13:13;99649.81;;;13.07;100.00
64080;BME280;51042;49.696;10.808;2023-11-19T11:15:38;99608.66;;;13.20;100.00
64080;BME280;51042;49.696;10.808;2023-11-19T11:18:04;99578.53;;;13.68;100.00
64080;BME280;51042;49.696;10.808;2023-11-19T11:20:32;99531.53;;;13.72;100.00
64080;BME280;51042;49.696;10.808;2023-11-19T11:28:16;99397.91;;;14.05;100.00
64080;BME280;51042;49.696;10.808;2023-11-19T11:31:03;99354.66;;;13.54;100.00
64080;BME280;51042;49.696;10.808;2023-11-19T11:36:19;99287.25;;;13.55;100.00
64080;BME280;51042;49.696;10.808;2023-11-19T11:38:46;99227.78;;;13.70;100.00
64080;BME280;51042;49.696;10.808;2023-11-19T11:43:47;99133.47;;;14.00;100.00
64080;BME280;51042;49.696;10.808;2023-11-19T11:49:01;99052.97;;;13.51;100.00
64080;BME280;51042;49.696;10.808;2023-11-19T11:54:27;99040.91;;;13.03;100.00
64080;BME280;51042;49.696;10.808;2023-11-19T11:57:16;99046.06;;;12.73;100.00
64080;BME280;51042;49.696;10.808;2023-11-19T11:59:46;99062.69;;;12.53;100.00
64080;BME280;51042;49.696;10.808;2023-11-19T12:02:12;99086.19;;;12.41;100.00
64080;BME280;51042;49.696;10.808;2023-11-19T12:04:42;99100.38;;;12.23;100.00
64080;BME280;51042;49.696;10.808;2023-11-19T12:07:14;99127.84;;;11.91;100.00
64080;BME280;51042;49.696;10.808;2023-11-19T12:09:40;99164.78;;;11.70;100.00
64080;BME280;51042;49.696;10.808;2023-11-19T12:12:17;99195.78;;;11.71;100.00
64080;BME280;51042;49.696;10.808;2023-11-19T12:17:43;99265.22;;;11.55;100.00
64080;BME280;51042;49.696;10.808;2023-11-19T12:20:14;99284.34;;;11.39;100.00
64080;BME280;51042;49.696;10.808;2023-11-19T12:22:41;99306.09;;;11.30;100.00
64080;BME280;51042;49.696;10.808;2023-11-19T12:25:07;99321.09;;;11.25;100.00
64080;BME280;51042;49.696;10.808;2023-11-19T12:27:33;99336.81;;;11.21;100.00
64080;BME280;51042;49.696;10.808;2023-11-19T12:29:59;99382.31;;;11.76;100.00
64080;BME280;51042;49.696;10.808;2023-11-19T12:32:24;99391.44;;;11.93;100.00
64080;BME280;51042;49.696;10.808;2023-11-19T12:34:49;99404.28;;;12.22;100.00
64080;BME280;51042;49.696;10.808;2023-11-19T12:37:15;99391.09;;;12.73;100.00
64080;BME280;51042;49.696;10.808;2023-11-19T12:39:40;99364.63;;;12.79;100.00
64080;BME280;51042;49.696;10.808;2023-11-19T12:42:05;99335.28;;;12.89;100.00
64080;BME280;51042;49.696;10.808;2023-11-19T12:44:30;99316.34;;;12.91;100.00
64080;BME280;51042;49.696;10.808;2023-11-19T12:47:14;99281.25;;;12.75;100.00
64080;BME280;51042;49.696;10.808;2023-11-19T12:49:40;99254.19;;;12.38;100.00
64080;BME280;51042;49.696;10.808;2023-11-19T12:52:11;99258.88;;;12.21;100.00
64080;BME280;51042;49.696;10.808;2023-11-19T12:54:37;99273.38;;;12.21;100.00
64080;BME280;51042;49.696;10.808;2023-11-19T12:57:03;99280.13;;;12.56;100.00
64080;BME280;51042;49.696;10.808;2023-11-19T12:59:30;99276.47;;;12.79;100.00
64080;BME280;51042;49.696;10.808;2023-11-19T13:01:58;99257.19;;;13.12;100.00